sensor_id;sensor_type;location;lat;lon;timestamp;P1;durP1;ratioP1;P2;durP2;ratioP2
7929;SDS011;4010;42.698;23.124;2023-07-20T00:00:06;10.80;;;3.80;;
7929;SDS011;4010;42.698;23.124;2023-07-20T00:02:33;8.00;;;3.10;;
7929;SDS011;4010;42.698;23.124;2023-07-20T00:05:00;5.40;;;3.33;;
7929;SDS011;4010;42.698;23.124;2023-07-20T00:07:27;6.37;;;3.70;;
7929;SDS011;4010;42.698;23.124;2023-07-20T00:09:53;8.20;;;3.60;;
7929;SDS011;4010;42.698;23.124;2023-07-20T00:12:20;8.73;;;3.63;;
7929;SDS011;4010;42.698;23.124;2023-07-20T00:14:48;6.20;;;3.57;;
7929;SDS011;4010;42.698;23.124;2023-07-20T00:17:18;10.23;;;3.60;;
7929;SDS011;4010;42.698;23.124;2023-07-20T00:19:45;7.27;;;3.27;;
7929;SDS011;4010;42.698;23.124;2023-07-20T00:22:12;7.20;;;3.47;;
7929;SDS011;4010;42.698;23.124;2023-07-20T00:24:39;8.93;;;3.70;;
7929;SDS011;4010;42.698;23.124;2023-07-20T00:27:06;5.63;;;3.47;;
7929;SDS011;4010;42.698;23.124;2023-07-20T00:29:32;13.13;;;3.47;;
7929;SDS011;4010;42.698;23.124;2023-07-20T00:32:01;8.70;;;3.87;;
7929;SDS011;4010;42.698;23.124;2023-07-20T00:34:30;8.77;;;3.87;;
7929;SDS011;4010;42.698;23.124;2023-07-20T00:36:56;10.57;;;4.07;;
7929;SDS011;4010;42.698;23.124;2023-07-20T00:39:23;8.60;;;3.80;;
7929;SDS011;4010;42.698;23.124;2023-07-20T00:41:50;7.77;;;3.47;;
7929;SDS011;4010;42.698;23.124;2023-07-20T00:44:16;9.77;;;3.63;;
7929;SDS011;4010;42.698;23.124;2023-07-20T00:46:43;10.47;;;4.00;;
7929;SDS011;4010;42.698;23.124;2023-07-20T00:49:12;9.47;;;3.80;;
7929;SDS011;4010;42.698;23.124;2023-07-20T00:51:39;10.67;;;4.07;;
7929;SDS011;4010;42.698;23.124;2023-07-20T00:54:07;8.03;;;3.40;;
7929;SDS011;4010;42.698;23.124;2023-07-20T00:56:34;9.13;;;3.87;;
7929;SDS011;4010;42.698;23.124;2023-07-20T00:59:02;6.47;;;3.83;;
7929;SDS011;4010;42.698;23.124;2023-07-20T01:01:28;6.47;;;3.67;;
7929;SDS011;4010;42.698;23.124;2023-07-20T01:03:55;7.67;;;3.97;;
7929;SDS011;4010;42.698;23.124;2023-07-20T01:06:26;13.33;;;3.90;;
7929;SDS011;4010;42.698;23.124;2023-07-20T01:09:04;5.10;;;3.33;;
7929;SDS011;4010;42.698;23.124;2023-07-20T01:11:38;7.60;;;3.93;;
7929;SDS011;4010;42.698;23.124;2023-07-20T01:14:09;7.23;;;3.73;;
7929;SDS011;4010;42.698;23.124;2023-07-20T01:16:37;9.60;;;3.97;;
7929;SDS011;4010;42.698;23.124;2023-07-20T01:19:04;6.40;;;3.80;;
7929;SDS011;4010;42.698;23.124;2023-07-20T01:21:37;8.57;;;3.93;;
7929;SDS011;4010;42.698;23.124;2023-07-20T01:24:19;7.47;;;3.90;;
7929;SDS011;4010;42.698;23.124;2023-07-20T01:30:02;10.83;;;4.20;;
7929;SDS011;4010;42.698;23.124;2023-07-20T01:32:42;9.40;;;4.33;;
7929;SDS011;4010;42.698;23.124;2023-07-20T01:35:10;8.97;;;4.23;;
7929;SDS011;4010;42.698;23.124;2023-07-20T01:37:40;10.33;;;4.27;;
7929;SDS011;4010;42.698;23.124;2023-07-20T01:40:10;9.57;;;4.47;;
7929;SDS011;4010;42.698;23.124;2023-07-20T01:42:42;8.47;;;4.50;;
7929;SDS011;4010;42.698;23.124;2023-07-20T01:45:10;10.10;;;4.40;;
7929;SDS011;4010;42.698;23.124;2023-07-20T01:47:37;14.57;;;5.23;;
7929;SDS011;4010;42.698;23.124;2023-07-20T01:50:05;9.23;;;4.90;;
7929;SDS011;4010;42.698;23.124;2023-07-20T01:52:33;12.70;;;4.80;;
7929;SDS011;4010;42.698;23.124;2023-07-20T01:55:01;9.27;;;4.20;;
7929;SDS011;4010;42.698;23.124;2023-07-20T01:57:29;11.10;;;4.80;;
7929;SDS011;4010;42.698;23.124;2023-07-20T01:59:56;9.47;;;4.10;;
7929;SDS011;4010;42.698;23.124;2023-07-20T02:02:23;9.03;;;4.70;;
7929;SDS011;4010;42.698;23.124;2023-07-20T02:04:52;6.70;;;3.90;;
7929;SDS011;4010;42.698;23.124;2023-07-20T02:07:20;6.63;;;4.43;;
7929;SDS011;4010;42.698;23.124;2023-07-20T02:09:47;9.60;;;4.67;;
7929;SDS011;4010;42.698;23.124;2023-07-20T02:12:14;9.10;;;4.13;;
7929;SDS011;4010;42.698;23.124;2023-07-20T02:14:40;8.43;;;4.70;;
7929;SDS011;4010;42.698;23.124;2023-07-20T02:17:07;9.23;;;4.13;;
7929;SDS011;4010;42.698;23.124;2023-07-20T02:19:36;10.90;;;4.60;;
7929;SDS011;4010;42.698;23.124;2023-07-20T02:22:03;7.20;;;4.17;;
7929;SDS011;4010;42.698;23.124;2023-07-20T02:24:32;9.50;;;4.67;;
7929;SDS011;4010;42.698;23.124;2023-07-20T02:26:59;7.53;;;4.50;;
7929;SDS011;4010;42.698;23.124;2023-07-20T02:29:25;7.60;;;4.10;;
7929;SDS011;4010;42.698;23.124;2023-07-20T02:31:52;7.77;;;4.23;;
7929;SDS011;4010;42.698;23.124;2023-07-20T02:34:20;10.17;;;4.40;;
7929;SDS011;4010;42.698;23.124;2023-07-20T02:36:47;7.33;;;3.97;;
7929;SDS011;4010;42.698;23.124;2023-07-20T02:39:14;7.07;;;4.30;;
7929;SDS011;4010;42.698;23.124;2023-07-20T02:41:51;10.33;;;4.10;;
7929;SDS011;4010;42.698;23.124;2023-07-20T02:44:17;11.13;;;4.73;;
7929;SDS011;4010;42.698;23.124;2023-07-20T02:46:44;7.13;;;4.40;;
7929;SDS011;4010;42.698;23.124;2023-07-20T02:49:11;6.10;;;4.00;;
7929;SDS011;4010;42.698;23.124;2023-07-20T02:51:38;10.13;;;4.40;;
7929;SDS011;4010;42.698;23.124;2023-07-20T02:54:04;7.60;;;4.83;;
7929;SDS011;4010;42.698;23.124;2023-07-20T02:56:31;7.80;;;4.10;;
7929;SDS011;4010;42.698;23.124;2023-07-20T02:59:01;8.90;;;4.20;;
7929;SDS011;4010;42.698;23.124;2023-07-20T03:01:27;5.50;;;4.03;;
7929;SDS011;4010;42.698;23.124;2023-07-20T03:03:55;9.90;;;5.00;;
7929;SDS011;4010;42.698;23.124;2023-07-20T03:06:22;12.43;;;4.50;;
7929;SDS011;4010;42.698;23.124;2023-07-20T03:08:49;7.70;;;4.37;;
7929;SDS011;4010;42.698;23.124;2023-07-20T03:11:18;5.90;;;4.13;;
7929;SDS011;4010;42.698;23.124;2023-07-20T03:13:46;7.83;;;4.17;;
7929;SDS011;4010;42.698;23.124;2023-07-20T03:16:17;10.47;;;4.87;;
7929;SDS011;4010;42.698;23.124;2023-07-20T03:18:44;12.23;;;4.57;;
7929;SDS011;4010;42.698;23.124;2023-07-20T03:21:11;8.93;;;4.93;;
7929;SDS011;4010;42.698;23.124;2023-07-20T03:23:38;6.87;;;4.30;;
7929;SDS011;4010;42.698;23.124;2023-07-20T03:26:04;7.20;;;4.53;;
7929;SDS011;4010;42.698;23.124;2023-07-20T03:28:33;11.07;;;4.40;;
7929;SDS011;4010;42.698;23.124;2023-07-20T03:31:00;9.33;;;4.63;;
7929;SDS011;4010;42.698;23.124;2023-07-20T03:33:28;6.17;;;4.30;;
7929;SDS011;4010;42.698;23.124;2023-07-20T03:35:56;6.30;;;4.17;;
7929;SDS011;4010;42.698;23.124;2023-07-20T03:38:23;7.03;;;4.40;;
7929;SDS011;4010;42.698;23.124;2023-07-20T03:40:51;10.17;;;4.57;;
7929;SDS011;4010;42.698;23.124;2023-07-20T03:43:18;8.13;;;3.90;;
7929;SDS011;4010;42.698;23.124;2023-07-20T03:45:44;7.53;;;3.93;;
7929;SDS011;4010;42.698;23.124;2023-07-20T03:48:16;9.83;;;3.93;;
7929;SDS011;4010;42.698;23.124;2023-07-20T03:50:46;9.93;;;3.57;;
7929;SDS011;4010;42.698;23.124;2023-07-20T03:53:13;8.60;;;3.80;;
7929;SDS011;4010;42.698;23.124;2023-07-20T03:55:41;7.33;;;4.47;;
7929;SDS011;4010;42.698;23.124;2023-07-20T03:58:07;10.67;;;3.97;;
7929;SDS011;4010;42.698;23.124;2023-07-20T04:00:34;8.53;;;3.60;;
7929;SDS011;4010;42.698;23.124;2023-07-20T04:03:01;9.63;;;4.10;;
7929;SDS011;4010;42.698;23.124;2023-07-20T04:05:27;14.20;;;3.57;;
7929;SDS011;4010;42.698;23.124;2023-07-20T04:07:55;16.07;;;3.90;;
7929;SDS011;4010;42.698;23.124;2023-07-20T04:10:22;13.17;;;3.80;;
7929;SDS011;4010;42.698;23.124;2023-07-20T04:12:49;12.70;;;3.70;;
7929;SDS011;4010;42.698;23.124;2023-07-20T04:15:15;9.57;;;3.77;;
7929;SDS011;4010;42.698;23.124;2023-07-20T04:17:42;5.30;;;3.20;;
7929;SDS011;4010;42.698;23.124;2023-07-20T04:20:09;6.33;;;3.23;;
7929;SDS011;4010;42.698;23.124;2023-07-20T04:22:39;10.70;;;3.37;;
7929;SDS011;4010;42.698;23.124;2023-07-20T04:25:07;7.17;;;3.13;;
7929;SDS011;4010;42.698;23.124;2023-07-20T04:27:35;5.30;;;3.40;;
7929;SDS011;4010;42.698;23.124;2023-07-20T04:30:01;9.10;;;3.30;;
7929;SDS011;4010;42.698;23.124;2023-07-20T04:32:29;6.53;;;3.20;;
7929;SDS011;4010;42.698;23.124;2023-07-20T04:34:58;7.30;;;3.50;;
7929;SDS011;4010;42.698;23.124;2023-07-20T04:37:25;8.13;;;3.63;;
7929;SDS011;4010;42.698;23.124;2023-07-20T04:39:52;7.90;;;3.10;;
7929;SDS011;4010;42.698;23.124;2023-07-20T04:42:20;9.57;;;3.47;;
7929;SDS011;4010;42.698;23.124;2023-07-20T04:44:47;8.50;;;3.60;;
7929;SDS011;4010;42.698;23.124;2023-07-20T04:47:13;7.87;;;3.40;;
7929;SDS011;4010;42.698;23.124;2023-07-20T04:49:40;7.27;;;3.60;;
7929;SDS011;4010;42.698;23.124;2023-07-20T04:52:07;9.07;;;3.97;;
7929;SDS011;4010;42.698;23.124;2023-07-20T04:54:39;8.47;;;3.67;;
7929;SDS011;4010;42.698;23.124;2023-07-20T04:57:11;6.77;;;3.30;;
7929;SDS011;4010;42.698;23.124;2023-07-20T04:59:39;7.57;;;3.53;;
7929;SDS011;4010;42.698;23.124;2023-07-20T05:02:06;11.37;;;4.07;;
7929;SDS011;4010;42.698;23.124;2023-07-20T05:04:36;7.47;;;3.47;;
7929;SDS011;4010;42.698;23.124;2023-07-20T05:07:02;4.90;;;3.13;;
7929;SDS011;4010;42.698;23.124;2023-07-20T05:09:29;8.50;;;3.60;;
7929;SDS011;4010;42.698;23.124;2023-07-20T05:11:56;8.10;;;3.70;;
7929;SDS011;4010;42.698;23.124;2023-07-20T05:14:23;10.13;;;4.17;;
7929;SDS011;4010;42.698;23.124;2023-07-20T05:16:51;9.90;;;4.03;;
7929;SDS011;4010;42.698;23.124;2023-07-20T05:19:17;10.63;;;4.10;;
7929;SDS011;4010;42.698;23.124;2023-07-20T05:21:44;8.73;;;3.90;;
7929;SDS011;4010;42.698;23.124;2023-07-20T05:24:11;7.97;;;4.07;;
7929;SDS011;4010;42.698;23.124;2023-07-20T05:26:37;8.07;;;4.10;;
7929;SDS011;4010;42.698;23.124;2023-07-20T05:29:04;13.10;;;4.30;;
7929;SDS011;4010;42.698;23.124;2023-07-20T05:31:31;10.57;;;4.13;;
7929;SDS011;4010;42.698;23.124;2023-07-20T05:33:59;7.17;;;4.33;;
7929;SDS011;4010;42.698;23.124;2023-07-20T05:36:26;16.00;;;4.37;;
7929;SDS011;4010;42.698;23.124;2023-07-20T05:38:52;8.53;;;3.97;;
7929;SDS011;4010;42.698;23.124;2023-07-20T05:41:19;7.80;;;3.70;;
7929;SDS011;4010;42.698;23.124;2023-07-20T05:43:47;7.77;;;3.80;;
7929;SDS011;4010;42.698;23.124;2023-07-20T05:46:14;8.27;;;3.80;;
7929;SDS011;4010;42.698;23.124;2023-07-20T05:48:41;7.47;;;3.93;;
7929;SDS011;4010;42.698;23.124;2023-07-20T05:51:09;8.97;;;3.90;;
7929;SDS011;4010;42.698;23.124;2023-07-20T05:53:35;10.73;;;4.17;;
7929;SDS011;4010;42.698;23.124;2023-07-20T05:56:03;9.77;;;4.03;;
7929;SDS011;4010;42.698;23.124;2023-07-20T05:58:30;6.83;;;4.10;;
7929;SDS011;4010;42.698;23.124;2023-07-20T06:00:57;6.37;;;4.20;;
7929;SDS011;4010;42.698;23.124;2023-07-20T06:03:23;8.80;;;4.20;;
7929;SDS011;4010;42.698;23.124;2023-07-20T06:05:57;8.67;;;4.10;;
7929;SDS011;4010;42.698;23.124;2023-07-20T06:08:26;6.43;;;4.20;;
7929;SDS011;4010;42.698;23.124;2023-07-20T06:10:56;9.50;;;4.20;;
7929;SDS011;4010;42.698;23.124;2023-07-20T06:13:22;10.23;;;4.03;;
7929;SDS011;4010;42.698;23.124;2023-07-20T06:15:50;9.67;;;4.53;;
7929;SDS011;4010;42.698;23.124;2023-07-20T06:18:23;8.93;;;4.10;;
7929;SDS011;4010;42.698;23.124;2023-07-20T06:20:49;7.40;;;3.87;;
7929;SDS011;4010;42.698;23.124;2023-07-20T06:23:18;7.83;;;3.80;;
7929;SDS011;4010;42.698;23.124;2023-07-20T06:25:47;8.93;;;4.03;;
7929;SDS011;4010;42.698;23.124;2023-07-20T06:28:14;8.17;;;4.67;;
7929;SDS011;4010;42.698;23.124;2023-07-20T06:30:41;11.00;;;4.53;;
7929;SDS011;4010;42.698;23.124;2023-07-20T06:33:07;8.67;;;4.20;;
7929;SDS011;4010;42.698;23.124;2023-07-20T06:35:34;7.97;;;5.20;;
7929;SDS011;4010;42.698;23.124;2023-07-20T06:38:01;11.57;;;4.57;;
7929;SDS011;4010;42.698;23.124;2023-07-20T06:40:28;9.37;;;4.73;;
7929;SDS011;4010;42.698;23.124;2023-07-20T06:42:56;7.87;;;4.20;;
7929;SDS011;4010;42.698;23.124;2023-07-20T06:45:23;8.10;;;4.00;;
7929;SDS011;4010;42.698;23.124;2023-07-20T06:47:51;9.57;;;4.80;;
7929;SDS011;4010;42.698;23.124;2023-07-20T06:50:18;9.50;;;4.50;;
7929;SDS011;4010;42.698;23.124;2023-07-20T06:52:45;7.83;;;4.07;;
7929;SDS011;4010;42.698;23.124;2023-07-20T06:55:13;9.87;;;4.23;;
7929;SDS011;4010;42.698;23.124;2023-07-20T06:57:39;16.57;;;4.20;;
7929;SDS011;4010;42.698;23.124;2023-07-20T07:00:11;6.97;;;4.10;;
7929;SDS011;4010;42.698;23.124;2023-07-20T07:02:38;11.40;;;4.83;;
7929;SDS011;4010;42.698;23.124;2023-07-20T07:05:05;9.37;;;3.97;;
7929;SDS011;4010;42.698;23.124;2023-07-20T07:07:32;11.77;;;4.80;;
7929;SDS011;4010;42.698;23.124;2023-07-20T07:09:59;12.53;;;4.00;;
7929;SDS011;4010;42.698;23.124;2023-07-20T07:12:26;11.10;;;4.37;;
7929;SDS011;4010;42.698;23.124;2023-07-20T07:14:53;10.80;;;5.53;;
7929;SDS011;4010;42.698;23.124;2023-07-20T07:17:21;9.87;;;4.80;;
7929;SDS011;4010;42.698;23.124;2023-07-20T07:19:47;8.20;;;4.00;;
7929;SDS011;4010;42.698;23.124;2023-07-20T07:22:14;10.73;;;4.70;;
7929;SDS011;4010;42.698;23.124;2023-07-20T07:24:41;9.13;;;4.80;;
7929;SDS011;4010;42.698;23.124;2023-07-20T07:27:08;12.00;;;4.83;;
7929;SDS011;4010;42.698;23.124;2023-07-20T07:29:37;8.37;;;4.23;;
7929;SDS011;4010;42.698;23.124;2023-07-20T07:32:04;9.23;;;4.63;;
7929;SDS011;4010;42.698;23.124;2023-07-20T07:34:32;9.57;;;4.23;;
7929;SDS011;4010;42.698;23.124;2023-07-20T07:37:00;8.03;;;4.07;;
7929;SDS011;4010;42.698;23.124;2023-07-20T07:39:26;9.37;;;4.70;;
7929;SDS011;4010;42.698;23.124;2023-07-20T07:41:55;6.87;;;3.97;;
7929;SDS011;4010;42.698;23.124;2023-07-20T07:44:24;7.60;;;4.30;;
7929;SDS011;4010;42.698;23.124;2023-07-20T07:46:51;11.93;;;4.13;;
7929;SDS011;4010;42.698;23.124;2023-07-20T07:49:18;8.00;;;4.40;;
7929;SDS011;4010;42.698;23.124;2023-07-20T07:51:46;6.30;;;4.03;;
7929;SDS011;4010;42.698;23.124;2023-07-20T07:54:13;13.67;;;4.57;;
7929;SDS011;4010;42.698;23.124;2023-07-20T07:56:40;9.63;;;4.73;;
7929;SDS011;4010;42.698;23.124;2023-07-20T07:59:09;10.97;;;4.50;;
7929;SDS011;4010;42.698;23.124;2023-07-20T08:01:36;6.77;;;3.80;;
7929;SDS011;4010;42.698;23.124;2023-07-20T08:04:03;10.90;;;4.17;;
7929;SDS011;4010;42.698;23.124;2023-07-20T08:06:29;8.73;;;3.83;;
7929;SDS011;4010;42.698;23.124;2023-07-20T08:08:58;9.53;;;3.80;;
7929;SDS011;4010;42.698;23.124;2023-07-20T08:11:24;9.40;;;3.57;;
7929;SDS011;4010;42.698;23.124;2023-07-20T08:13:51;9.80;;;3.30;;
7929;SDS011;4010;42.698;23.124;2023-07-20T08:16:20;7.77;;;3.57;;
7929;SDS011;4010;42.698;23.124;2023-07-20T08:18:46;9.10;;;3.07;;
7929;SDS011;4010;42.698;23.124;2023-07-20T08:21:13;8.90;;;3.10;;
7929;SDS011;4010;42.698;23.124;2023-07-20T08:23:40;6.70;;;3.23;;
7929;SDS011;4010;42.698;23.124;2023-07-20T08:26:08;9.43;;;3.07;;
7929;SDS011;4010;42.698;23.124;2023-07-20T08:28:34;9.43;;;3.30;;
7929;SDS011;4010;42.698;23.124;2023-07-20T08:31:05;9.17;;;3.20;;
7929;SDS011;4010;42.698;23.124;2023-07-20T08:33:32;10.20;;;3.30;;
7929;SDS011;4010;42.698;23.124;2023-07-20T08:36:00;9.77;;;3.17;;
7929;SDS011;4010;42.698;23.124;2023-07-20T08:38:28;7.50;;;3.00;;
7929;SDS011;4010;42.698;23.124;2023-07-20T08:40:55;5.97;;;2.83;;
7929;SDS011;4010;42.698;23.124;2023-07-20T08:43:23;7.63;;;3.40;;
7929;SDS011;4010;42.698;23.124;2023-07-20T08:45:50;7.37;;;2.90;;
7929;SDS011;4010;42.698;23.124;2023-07-20T08:48:18;10.70;;;3.30;;
7929;SDS011;4010;42.698;23.124;2023-07-20T08:50:47;7.70;;;3.00;;
7929;SDS011;4010;42.698;23.124;2023-07-20T08:53:15;8.63;;;3.27;;
7929;SDS011;4010;42.698;23.124;2023-07-20T08:55:42;8.77;;;3.13;;
7929;SDS011;4010;42.698;23.124;2023-07-20T08:58:11;9.10;;;2.83;;
7929;SDS011;4010;42.698;23.124;2023-07-20T09:00:41;8.37;;;3.10;;
7929;SDS011;4010;42.698;23.124;2023-07-20T09:03:08;6.57;;;3.10;;
7929;SDS011;4010;42.698;23.124;2023-07-20T09:05:36;8.20;;;2.97;;
7929;SDS011;4010;42.698;23.124;2023-07-20T09:08:04;6.43;;;2.93;;
7929;SDS011;4010;42.698;23.124;2023-07-20T09:10:30;15.67;;;3.30;;
7929;SDS011;4010;42.698;23.124;2023-07-20T09:12:57;8.90;;;2.80;;
7929;SDS011;4010;42.698;23.124;2023-07-20T09:15:24;7.33;;;2.90;;
7929;SDS011;4010;42.698;23.124;2023-07-20T09:17:53;4.70;;;2.67;;
7929;SDS011;4010;42.698;23.124;2023-07-20T09:20:20;10.17;;;3.43;;
7929;SDS011;4010;42.698;23.124;2023-07-20T09:22:47;6.97;;;3.00;;
7929;SDS011;4010;42.698;23.124;2023-07-20T09:25:15;7.40;;;2.87;;
7929;SDS011;4010;42.698;23.124;2023-07-20T09:27:44;7.17;;;3.00;;
7929;SDS011;4010;42.698;23.124;2023-07-20T09:30:15;7.67;;;2.90;;
7929;SDS011;4010;42.698;23.124;2023-07-20T09:32:42;5.97;;;2.70;;
7929;SDS011;4010;42.698;23.124;2023-07-20T09:35:14;7.20;;;2.80;;
7929;SDS011;4010;42.698;23.124;2023-07-20T09:37:46;8.20;;;3.20;;
7929;SDS011;4010;42.698;23.124;2023-07-20T09:40:14;6.93;;;3.00;;
7929;SDS011;4010;42.698;23.124;2023-07-20T09:42:43;6.33;;;2.50;;
7929;SDS011;4010;42.698;23.124;2023-07-20T09:45:10;9.60;;;3.07;;
7929;SDS011;4010;42.698;23.124;2023-07-20T09:47:37;9.33;;;2.90;;
7929;SDS011;4010;42.698;23.124;2023-07-20T09:50:05;6.10;;;2.93;;
7929;SDS011;4010;42.698;23.124;2023-07-20T09:52:37;6.57;;;2.97;;
7929;SDS011;4010;42.698;23.124;2023-07-20T09:55:09;5.63;;;2.77;;
7929;SDS011;4010;42.698;23.124;2023-07-20T09:57:37;8.00;;;2.67;;
7929;SDS011;4010;42.698;23.124;2023-07-20T10:00:04;7.47;;;3.03;;
7929;SDS011;4010;42.698;23.124;2023-07-20T10:02:39;4.33;;;2.43;;
7929;SDS011;4010;42.698;23.124;2023-07-20T10:05:08;6.33;;;2.50;;
7929;SDS011;4010;42.698;23.124;2023-07-20T10:07:40;5.10;;;2.80;;
7929;SDS011;4010;42.698;23.124;2023-07-20T10:10:10;5.40;;;2.43;;
7929;SDS011;4010;42.698;23.124;2023-07-20T10:12:37;5.10;;;2.67;;
7929;SDS011;4010;42.698;23.124;2023-07-20T10:15:08;5.77;;;2.80;;
7929;SDS011;4010;42.698;23.124;2023-07-20T10:17:39;8.73;;;2.73;;
7929;SDS011;4010;42.698;23.124;2023-07-20T10:20:10;5.67;;;2.70;;
7929;SDS011;4010;42.698;23.124;2023-07-20T10:22:39;7.30;;;3.27;;
7929;SDS011;4010;42.698;23.124;2023-07-20T10:25:06;7.53;;;2.67;;
7929;SDS011;4010;42.698;23.124;2023-07-20T10:27:33;7.13;;;2.60;;
7929;SDS011;4010;42.698;23.124;2023-07-20T10:30:00;7.07;;;3.20;;
7929;SDS011;4010;42.698;23.124;2023-07-20T10:32:32;8.47;;;3.00;;
7929;SDS011;4010;42.698;23.124;2023-07-20T10:34:59;6.23;;;2.60;;
7929;SDS011;4010;42.698;23.124;2023-07-20T10:37:48;8.20;;;2.83;;
7929;SDS011;4010;42.698;23.124;2023-07-20T10:40:26;9.67;;;3.13;;
7929;SDS011;4010;42.698;23.124;2023-07-20T10:42:59;7.83;;;2.67;;
7929;SDS011;4010;42.698;23.124;2023-07-20T10:45:33;7.13;;;2.80;;
7929;SDS011;4010;42.698;23.124;2023-07-20T10:48:06;5.83;;;3.20;;
7929;SDS011;4010;42.698;23.124;2023-07-20T10:50:40;6.73;;;3.07;;
7929;SDS011;4010;42.698;23.124;2023-07-20T10:53:12;5.97;;;3.23;;
7929;SDS011;4010;42.698;23.124;2023-07-20T10:55:40;5.43;;;2.97;;
7929;SDS011;4010;42.698;23.124;2023-07-20T10:58:08;9.17;;;3.07;;
7929;SDS011;4010;42.698;23.124;2023-07-20T11:03:28;8.23;;;3.40;;
7929;SDS011;4010;42.698;23.124;2023-07-20T11:05:59;8.10;;;3.13;;
7929;SDS011;4010;42.698;23.124;2023-07-20T11:08:41;7.13;;;3.67;;
7929;SDS011;4010;42.698;23.124;2023-07-20T11:11:21;7.43;;;4.33;;
7929;SDS011;4010;42.698;23.124;2023-07-20T11:13:55;8.97;;;4.40;;
7929;SDS011;4010;42.698;23.124;2023-07-20T11:16:35;7.87;;;4.30;;
7929;SDS011;4010;42.698;23.124;2023-07-20T11:19:10;6.00;;;4.70;;
7929;SDS011;4010;42.698;23.124;2023-07-20T11:21:41;10.73;;;4.57;;
7929;SDS011;4010;42.698;23.124;2023-07-20T11:24:10;6.43;;;3.57;;
7929;SDS011;4010;42.698;23.124;2023-07-20T11:26:44;7.03;;;3.57;;
7929;SDS011;4010;42.698;23.124;2023-07-20T11:29:12;6.80;;;4.00;;
7929;SDS011;4010;42.698;23.124;2023-07-20T11:31:40;9.30;;;3.63;;
7929;SDS011;4010;42.698;23.124;2023-07-20T11:34:09;9.00;;;3.73;;
7929;SDS011;4010;42.698;23.124;2023-07-20T11:36:37;7.67;;;3.60;;
7929;SDS011;4010;42.698;23.124;2023-07-20T11:39:06;5.23;;;3.40;;
7929;SDS011;4010;42.698;23.124;2023-07-20T11:41:35;9.97;;;3.83;;
7929;SDS011;4010;42.698;23.124;2023-07-20T11:44:03;10.87;;;3.77;;
7929;SDS011;4010;42.698;23.124;2023-07-20T11:46:31;8.13;;;3.83;;
7929;SDS011;4010;42.698;23.124;2023-07-20T11:48:58;8.87;;;3.60;;
7929;SDS011;4010;42.698;23.124;2023-07-20T11:51:26;5.90;;;3.50;;
7929;SDS011;4010;42.698;23.124;2023-07-20T11:53:53;10.67;;;4.10;;
7929;SDS011;4010;42.698;23.124;2023-07-20T11:56:22;6.87;;;3.77;;
7929;SDS011;4010;42.698;23.124;2023-07-20T11:58:53;11.33;;;3.83;;
7929;SDS011;4010;42.698;23.124;2023-07-20T12:01:22;6.80;;;3.73;;
7929;SDS011;4010;42.698;23.124;2023-07-20T12:03:49;7.47;;;3.53;;
7929;SDS011;4010;42.698;23.124;2023-07-20T12:06:16;11.17;;;4.00;;
7929;SDS011;4010;42.698;23.124;2023-07-20T12:08:43;11.27;;;4.00;;
7929;SDS011;4010;42.698;23.124;2023-07-20T12:11:10;7.90;;;3.93;;
7929;SDS011;4010;42.698;23.124;2023-07-20T12:13:37;11.53;;;4.10;;
7929;SDS011;4010;42.698;23.124;2023-07-20T12:16:14;8.63;;;3.67;;
7929;SDS011;4010;42.698;23.124;2023-07-20T12:18:42;8.40;;;3.70;;
7929;SDS011;4010;42.698;23.124;2023-07-20T12:21:09;6.63;;;3.17;;
7929;SDS011;4010;42.698;23.124;2023-07-20T12:23:37;7.27;;;3.33;;
7929;SDS011;4010;42.698;23.124;2023-07-20T12:26:06;4.93;;;3.17;;
7929;SDS011;4010;42.698;23.124;2023-07-20T12:28:35;7.20;;;3.70;;
7929;SDS011;4010;42.698;23.124;2023-07-20T12:31:04;7.53;;;3.33;;
7929;SDS011;4010;42.698;23.124;2023-07-20T12:33:33;5.53;;;3.20;;
7929;SDS011;4010;42.698;23.124;2023-07-20T12:35:59;10.73;;;3.77;;
7929;SDS011;4010;42.698;23.124;2023-07-20T12:38:27;8.00;;;3.37;;
7929;SDS011;4010;42.698;23.124;2023-07-20T12:40:53;6.60;;;3.33;;
7929;SDS011;4010;42.698;23.124;2023-07-20T12:43:21;8.43;;;3.53;;
7929;SDS011;4010;42.698;23.124;2023-07-20T12:45:48;8.57;;;3.83;;
7929;SDS011;4010;42.698;23.124;2023-07-20T12:48:15;7.20;;;4.00;;
7929;SDS011;4010;42.698;23.124;2023-07-20T12:50:43;8.97;;;3.47;;
7929;SDS011;4010;42.698;23.124;2023-07-20T12:53:10;8.20;;;3.90;;
7929;SDS011;4010;42.698;23.124;2023-07-20T12:55:37;6.17;;;3.67;;
7929;SDS011;4010;42.698;23.124;2023-07-20T12:58:04;9.43;;;3.90;;
7929;SDS011;4010;42.698;23.124;2023-07-20T13:00:30;8.17;;;3.93;;
7929;SDS011;4010;42.698;23.124;2023-07-20T13:02:59;7.10;;;3.70;;
7929;SDS011;4010;42.698;23.124;2023-07-20T13:05:29;8.97;;;3.80;;
7929;SDS011;4010;42.698;23.124;2023-07-20T13:07:58;8.20;;;3.47;;
7929;SDS011;4010;42.698;23.124;2023-07-20T13:10:25;7.43;;;3.63;;
7929;SDS011;4010;42.698;23.124;2023-07-20T13:12:51;7.07;;;3.40;;
7929;SDS011;4010;42.698;23.124;2023-07-20T13:15:18;8.20;;;3.40;;
7929;SDS011;4010;42.698;23.124;2023-07-20T13:17:45;7.50;;;3.40;;
7929;SDS011;4010;42.698;23.124;2023-07-20T13:20:12;5.30;;;3.07;;
7929;SDS011;4010;42.698;23.124;2023-07-20T13:22:39;7.13;;;3.40;;
7929;SDS011;4010;42.698;23.124;2023-07-20T13:25:08;6.50;;;3.43;;
7929;SDS011;4010;42.698;23.124;2023-07-20T13:27:35;6.47;;;2.87;;
7929;SDS011;4010;42.698;23.124;2023-07-20T13:30:03;7.67;;;2.87;;
7929;SDS011;4010;42.698;23.124;2023-07-20T13:32:32;11.80;;;3.20;;
7929;SDS011;4010;42.698;23.124;2023-07-20T13:34:58;6.30;;;3.00;;
7929;SDS011;4010;42.698;23.124;2023-07-20T13:37:25;8.13;;;3.40;;
7929;SDS011;4010;42.698;23.124;2023-07-20T13:39:52;9.87;;;3.53;;
7929;SDS011;4010;42.698;23.124;2023-07-20T13:42:20;8.50;;;3.37;;
7929;SDS011;4010;42.698;23.124;2023-07-20T13:44:47;8.27;;;3.63;;
7929;SDS011;4010;42.698;23.124;2023-07-20T13:47:13;8.40;;;3.10;;
7929;SDS011;4010;42.698;23.124;2023-07-20T13:49:40;7.03;;;3.40;;
7929;SDS011;4010;42.698;23.124;2023-07-20T13:52:07;9.80;;;3.77;;
7929;SDS011;4010;42.698;23.124;2023-07-20T13:54:34;8.93;;;2.83;;
7929;SDS011;4010;42.698;23.124;2023-07-20T13:57:00;8.50;;;3.00;;
7929;SDS011;4010;42.698;23.124;2023-07-20T13:59:29;6.20;;;3.20;;
7929;SDS011;4010;42.698;23.124;2023-07-20T14:01:55;6.20;;;2.60;;
7929;SDS011;4010;42.698;23.124;2023-07-20T14:04:22;6.97;;;3.13;;
7929;SDS011;4010;42.698;23.124;2023-07-20T14:06:49;10.33;;;7.23;;
7929;SDS011;4010;42.698;23.124;2023-07-20T14:09:19;9.80;;;5.40;;
7929;SDS011;4010;42.698;23.124;2023-07-20T14:11:45;9.33;;;3.17;;
7929;SDS011;4010;42.698;23.124;2023-07-20T14:14:12;8.20;;;3.03;;
7929;SDS011;4010;42.698;23.124;2023-07-20T14:16:40;8.80;;;3.10;;
7929;SDS011;4010;42.698;23.124;2023-07-20T14:19:07;6.47;;;2.63;;
7929;SDS011;4010;42.698;23.124;2023-07-20T14:21:33;9.57;;;3.10;;
7929;SDS011;4010;42.698;23.124;2023-07-20T14:24:00;6.90;;;2.90;;
7929;SDS011;4010;42.698;23.124;2023-07-20T14:26:27;7.20;;;3.07;;
7929;SDS011;4010;42.698;23.124;2023-07-20T14:28:53;7.10;;;3.07;;
7929;SDS011;4010;42.698;23.124;2023-07-20T14:31:20;5.47;;;2.50;;
7929;SDS011;4010;42.698;23.124;2023-07-20T14:33:48;5.70;;;2.93;;
7929;SDS011;4010;42.698;23.124;2023-07-20T14:36:15;8.90;;;3.10;;
7929;SDS011;4010;42.698;23.124;2023-07-20T14:38:42;5.23;;;2.57;;
7929;SDS011;4010;42.698;23.124;2023-07-20T14:41:08;5.53;;;2.63;;
7929;SDS011;4010;42.698;23.124;2023-07-20T14:43:35;6.47;;;3.20;;
7929;SDS011;4010;42.698;23.124;2023-07-20T14:46:02;7.73;;;3.00;;
7929;SDS011;4010;42.698;23.124;2023-07-20T14:48:28;6.73;;;2.93;;
7929;SDS011;4010;42.698;23.124;2023-07-20T14:50:56;7.40;;;3.07;;
7929;SDS011;4010;42.698;23.124;2023-07-20T14:53:23;7.33;;;3.30;;
7929;SDS011;4010;42.698;23.124;2023-07-20T14:55:53;7.63;;;2.80;;
7929;SDS011;4010;42.698;23.124;2023-07-20T14:58:24;6.57;;;3.97;;
7929;SDS011;4010;42.698;23.124;2023-07-20T15:00:51;8.03;;;3.70;;
7929;SDS011;4010;42.698;23.124;2023-07-20T15:03:18;9.07;;;3.10;;
7929;SDS011;4010;42.698;23.124;2023-07-20T15:05:44;8.47;;;2.97;;
7929;SDS011;4010;42.698;23.124;2023-07-20T15:08:12;8.57;;;3.23;;